Time;durP1;ratioP1;P1;durP2;ratioP2;P2;SDS_P1;SDS_P2;PMS_P1;PMS_P2;Temp;Humidity;BMP_temperature;BMP_pressure;BME280_temperature;BME280_humidity;BME280_pressure;Samples;Min_cycle;Max_cycle;Signal;HPM_P1;HPM_P2
2021/12/15 00:01:40;;;;;;;30.55;13.43;;;6.90;99.90;;;;;;5098481;28;20633;-83
2021/12/15 00:04:06;;;;;;;29.02;13.27;;;6.90;99.90;;;;;;5098125;28;20047;-83
2021/12/15 00:06:33;;;;;;;31.27;13.63;;;6.90;99.90;;;;;;5098612;28;20027;-83
2021/12/15 00:09:00;;;;;;;31.45;13.25;;;6.90;99.90;;;;;;5080321;28;20471;-83
2021/12/15 00:11:36;;;;;;;32.20;13.10;;;6.90;99.90;;;;;;5095856;28;20020;-83
2021/12/15 00:14:05;;;;;;;32.10;13.73;;;6.80;99.90;;;;;;5110653;28;20044;-83
2021/12/15 00:16:31;;;;;;;30.77;12.57;;;6.80;99.90;;;;;;5097692;28;20043;-83
2021/12/15 00:18:57;;;;;;;31.43;13.97;;;6.80;99.90;;;;;;5097951;28;20448;-83
2021/12/15 00:21:22;;;;;;;32.70;13.40;;;6.80;99.90;;;;;;5097642;28;20019;-83
2021/12/15 00:23:49;;;;;;;29.77;13.10;;;6.80;99.90;;;;;;5116006;28;20038;-83
2021/12/15 00:26:16;;;;;;;29.02;13.23;;;6.80;99.90;;;;;;5115413;28;20019;-85
2021/12/15 00:28:43;;;;;;;29.10;12.27;;;6.80;99.90;;;;;;5097983;28;20027;-83
2021/12/15 00:31:10;;;;;;;28.70;12.20;;;6.80;99.90;;;;;;5097420;28;20027;-83
2021/12/15 00:33:38;;;;;;;38.30;13.98;;;6.80;99.90;;;;;;5115825;28;20016;-83
2021/12/15 00:36:04;;;;;;;29.58;12.13;;;6.80;99.90;;;;;;5097449;28;20019;-83
2021/12/15 00:38:30;;;;;;;28.88;12.80;;;6.80;99.90;;;;;;5097725;28;20035;-83
2021/12/15 00:40:56;;;;;;;31.20;12.30;;;6.80;99.90;;;;;;5097295;28;20027;-83
2021/12/15 00:43:22;;;;;;;31.73;12.60;;;6.80;99.90;;;;;;5097240;28;20365;-83
2021/12/15 00:45:48;;;;;;;31.73;12.57;;;6.70;99.90;;;;;;5114806;28;20037;-83
2021/12/15 00:48:14;;;;;;;34.23;13.97;;;6.70;99.90;;;;;;5114596;28;20453;-83
2021/12/15 00:50:42;;;;;;;32.47;13.73;;;6.70;99.90;;;;;;5115842;28;20030;-82
2021/12/15 00:53:08;;;;;;;34.28;13.45;;;6.70;99.90;;;;;;5096970;28;20030;-83
2021/12/15 00:55:35;;;;;;;28.17;12.88;;;6.70;99.90;;;;;;5115375;28;20016;-82
2021/12/15 00:58:03;;;;;;;27.07;12.73;;;6.70;99.90;;;;;;5097183;28;20016;-83
2021/12/15 01:00:36;;;;;;;30.63;13.00;;;6.70;99.90;;;;;;5115125;28;20065;-83
2021/12/15 01:03:03;;;;;;;34.95;13.75;;;6.80;99.90;;;;;;5114880;28;20038;-83
2021/12/15 01:05:34;;;;;;;30.52;12.98;;;6.70;99.90;;;;;;5097022;28;20107;-83
2021/12/15 01:08:02;;;;;;;29.20;12.63;;;6.70;99.90;;;;;;5097139;28;20051;-83
2021/12/15 01:10:42;;;;;;;28.60;12.77;;;6.70;99.90;;;;;;5096697;28;20019;-83
2021/12/15 01:21:07;;;;;;;32.03;12.93;;;6.80;99.90;;;;;;5114429;28;20034;-84
2021/12/15 01:23:33;;;;;;;28.00;12.60;;;6.70;99.90;;;;;;5097103;28;20106;-83
2021/12/15 01:26:05;;;;;;;31.70;13.30;;;6.80;99.90;;;;;;5096518;28;20020;-83
2021/12/15 01:28:31;;;;;;;;;;;6.80;99.90;;;;;;5097657;28;20045;-83
2021/12/15 01:30:58;;;;;;;25.83;11.53;;;6.80;99.90;;;;;;5097090;28;19900;-83
2021/12/15 01:33:26;;;;;;;26.47;12.80;;;6.80;99.90;;;;;;5096118;28;20019;-83
2021/12/15 01:35:54;;;;;;;31.38;12.85;;;6.80;99.90;;;;;;5097058;28;20455;-83
2021/12/15 01:38:23;;;;;;;31.27;13.47;;;6.70;99.90;;;;;;5096725;28;20020;-83
2021/12/15 01:40:51;;;;;;;26.50;12.03;;;6.70;99.90;;;;;;5096695;28;20020;-83
2021/12/15 01:49:01;;;;;;;27.47;13.00;;;6.70;99.90;;;;;;5114813;28;20058;-83
2021/12/15 01:51:27;;;;;;;33.55;12.88;;;6.80;99.90;;;;;;5096028;28;20053;-83
2021/12/15 01:53:53;;;;;;;27.33;11.87;;;6.70;99.90;;;;;;5096687;28;20024;-83
2021/12/15 01:56:20;;;;;;;27.97;12.20;;;6.70;99.90;;;;;;5114109;28;20019;-83
2021/12/15 01:58:46;;;;;;;26.65;12.60;;;6.70;99.90;;;;;;5095869;28;20093;-83
2021/12/15 02:01:12;;;;;;;35.58;12.98;;;6.70;99.90;;;;;;5096150;28;20371;-83
2021/12/15 02:03:38;;;;;;;27.27;12.73;;;6.70;99.90;;;;;;5096956;28;20024;-83
2021/12/15 02:06:05;;;;;;;30.07;13.73;;;6.80;99.90;;;;;;5096485;28;20032;-83
2021/12/15 02:08:31;;;;;;;29.27;12.10;;;6.80;99.90;;;;;;5095854;28;20435;-83
2021/12/15 02:10:58;;;;;;;26.15;11.77;;;6.70;99.90;;;;;;5114578;28;20073;-83
2021/12/15 02:13:23;;;;;;;28.08;12.00;;;6.70;99.90;;;;;;5113899;28;20047;-83
2021/12/15 02:15:53;;;;;;;29.30;12.27;;;6.70;99.90;;;;;;5114535;28;20015;-82
2021/12/15 02:18:25;;;;;;;29.70;12.82;;;6.70;99.90;;;;;;5114180;28;20046;-83
2021/12/15 02:20:58;;;;;;;25.90;12.40;;;6.70;99.90;;;;;;5096777;28;20433;-83
2021/12/15 02:23:31;;;;;;;25.17;11.77;;;6.70;99.90;;;;;;5096218;28;20032;-84
2021/12/15 02:25:57;;;;;;;28.67;12.20;;;6.80;99.90;;;;;;5096063;28;20020;-83
2021/12/15 02:28:23;;;;;;;24.50;11.73;;;6.80;99.90;;;;;;5095797;28;20057;-83
2021/12/15 02:31:08;;;;;;;29.60;12.57;;;6.80;99.90;;;;;;5114375;28;20023;-83
2021/12/15 02:33:57;;;;;;;27.05;12.32;;;6.70;99.90;;;;;;5113945;28;20027;-83
2021/12/15 02:39:09;;;;;;;26.47;10.67;;;6.70;99.90;;;;;;5114233;28;20457;-83
2021/12/15 02:41:37;;;;;;;26.10;11.97;;;6.80;99.90;;;;;;5113955;28;20027;-83
2021/12/15 02:44:10;;;;;;;26.02;11.80;;;6.80;99.90;;;;;;5096317;28;20039;-83
2021/12/15 02:46:38;;;;;;;32.50;12.48;;;6.70;99.90;;;;;;5113887;28;20016;-83
2021/12/15 02:49:06;;;;;;;25.73;12.33;;;6.70;99.90;;;;;;5096406;28;20019;-83
2021/12/15 02:51:32;;;;;;;25.23;12.20;;;6.70;99.90;;;;;;5113670;28;20116;-83
2021/12/15 02:54:00;;;;;;;29.20;12.45;;;6.70;99.90;;;;;;5095912;28;20449;-83
2021/12/15 02:56:27;;;;;;;26.13;12.23;;;6.70;99.90;;;;;;5095419;28;20024;-83
2021/12/15 02:58:58;;;;;;;27.08;12.65;;;6.70;99.90;;;;;;5095711;28;20020;-83
2021/12/15 03:01:36;;;;;;;27.08;12.43;;;6.80;99.90;;;;;;5095597;28;20047;-83
2021/12/15 03:06:49;;;;;;;26.83;13.00;;;6.80;99.90;;;;;;5113654;28;20070;-83
2021/12/15 03:17:29;;;;;;;28.15;12.20;;;6.80;99.90;;;;;;5117060;28;20034;-83
2021/12/15 03:19:55;;;;;;;27.83;12.37;;;6.70;99.90;;;;;;5099489;28;20023;-83
2021/12/15 03:22:20;;;;;;;26.70;11.67;;;6.70;99.90;;;;;;5098652;28;20026;-84
2021/12/15 03:24:46;;;;;;;30.95;12.35;;;6.70;99.90;;;;;;5116945;28;20035;-83
2021/12/15 03:27:18;;;;;;;26.73;13.05;;;6.70;99.90;;;;;;5116698;28;20043;-82
2021/12/15 03:37:55;;;;;;;28.77;12.55;;;6.70;99.90;;;;;;5117051;28;20023;-83
2021/12/15 03:40:39;;;;;;;27.93;12.10;;;6.70;99.90;;;;;;5098844;28;20028;-82
2021/12/15 03:43:09;;;;;;;28.47;12.63;;;6.70;99.90;;;;;;5098900;28;20035;-83
2021/12/15 03:45:40;;;;;;;26.20;11.90;;;6.70;99.90;;;;;;5098565;28;20024;-83
2021/12/15 03:48:10;;;;;;;29.03;12.60;;;6.60;99.90;;;;;;5098582;28;20019;-84
2021/12/15 03:50:36;;;;;;;24.10;11.85;;;6.70;99.90;;;;;;5098753;28;20073;-83
2021/12/15 03:53:02;;;;;;;25.48;12.35;;;6.70;99.90;;;;;;5098773;28;20032;-83
2021/12/15 03:55:32;;;;;;;26.92;11.82;;;6.70;99.90;;;;;;5098088;28;20040;-84
2021/12/15 03:57:59;;;;;;;25.63;11.77;;;6.70;99.90;;;;;;5098500;28;20479;-83
2021/12/15 04:00:28;;;;;;;26.45;12.20;;;6.60;99.90;;;;;;5098009;28;20020;-83
2021/12/15 04:02:53;;;;;;;25.87;11.20;;;6.60;99.90;;;;;;5116730;28;20019;-83
2021/12/15 04:05:20;;;;;;;26.17;11.93;;;6.60;99.90;;;;;;5116004;28;20152;-84
2021/12/15 04:07:48;;;;;;;26.20;12.10;;;6.60;99.90;;;;;;5116483;28;20011;-83
2021/12/15 04:10:17;;;;;;;24.67;12.17;;;6.70;99.90;;;;;;5098223;28;20099;-83
2021/12/15 04:12:44;;;;;;;25.10;11.97;;;6.70;99.90;;;;;;5098428;28;20028;-83
2021/12/15 04:15:28;;;;;;;26.90;11.95;;;6.70;99.90;;;;;;5098611;28;20062;-83
2021/12/15 04:18:00;;;;;;;26.50;11.47;;;6.70;99.90;;;;;;5098350;28;20020;-83
2021/12/15 04:20:27;;;;;;;;;;;6.70;99.90;;;;;;5097497;28;20023;-83
2021/12/15 04:22:54;;;;;;;24.73;11.23;;;6.70;99.90;;;;;;5098192;28;19904;-83
2021/12/15 04:25:23;;;;;;;26.63;11.77;;;6.70;99.90;;;;;;5115559;28;20020;-83
2021/12/15 04:28:02;;;;;;;27.87;11.80;;;6.70;99.90;;;;;;5097942;28;20453;-83
2021/12/15 04:30:31;;;;;;;25.10;11.70;;;6.70;99.90;;;;;;5115550;28;20089;-83
2021/12/15 04:33:01;;;;;;;25.97;11.23;;;6.70;99.90;;;;;;5116182;28;20020;-83
2021/12/15 04:35:27;;;;;;;25.63;12.53;;;6.70;99.90;;;;;;5115579;28;20030;-84
2021/12/15 04:37:53;;;;;;;24.93;11.63;;;6.70;99.90;;;;;;5098294;28;20119;-83
2021/12/15 04:40:21;;;;;;;25.90;11.40;;;6.70;99.90;;;;;;5097417;28;20069;-83
2021/12/15 04:42:47;;;;;;;24.73;11.57;;;6.70;99.90;;;;;;5097281;28;20039;-83
2021/12/15 04:45:18;;;;;;;27.90;12.10;;;6.60;99.90;;;;;;5097794;28;20027;-83
2021/12/15 04:47:45;;;;;;;29.70;12.57;;;6.70;99.90;;;;;;5097625;28;20023;-83
2021/12/15 04:50:11;;;;;;;26.70;12.00;;;6.70;99.90;;;;;;5097856;28;20033;-82
2021/12/15 04:52:38;;;;;;;26.67;12.35;;;6.70;99.90;;;;;;5114977;28;20066;-83
2021/12/15 04:55:07;;;;;;;29.07;12.60;;;6.70;99.90;;;;;;5097525;28;20076;-84
2021/12/15 04:57:33;;;;;;;30.60;12.97;;;6.70;99.90;;;;;;5115214;28;20019;-84
2021/12/15 05:00:00;;;;;;;28.43;12.67;;;6.70;99.90;;;;;;5097684;28;20069;-83
2021/12/15 05:02:26;;;;;;;46.20;22.27;;;6.60;99.90;;;;;;5097240;28;20032;-83
2021/12/15 05:04:52;;;;;;;33.73;15.10;;;6.70;99.90;;;;;;5097512;28;20031;-83
2021/12/15 05:07:19;;;;;;;32.28;14.18;;;6.70;99.90;;;;;;5114666;28;20069;-83
2021/12/15 05:09:49;;;;;;;28.83;13.23;;;6.70;99.90;;;;;;5097610;28;20540;-83
2021/12/15 05:12:16;;;;;;;31.33;14.83;;;6.70;99.90;;;;;;5097469;28;20058;-83
2021/12/15 05:14:42;;;;;;;27.07;12.50;;;6.70;99.90;;;;;;5114392;28;20047;-83
2021/12/15 05:17:08;;;;;;;22.00;11.13;;;6.70;99.90;;;;;;5115565;28;20116;-83
2021/12/15 05:19:34;;;;;;;23.58;11.38;;;6.70;99.90;;;;;;5096917;28;20024;-83
2021/12/15 05:22:00;;;;;;;22.65;10.93;;;6.70;99.90;;;;;;5115045;28;20053;-83
2021/12/15 05:27:21;;;;;;;26.23;11.68;;;6.70;99.90;;;;;;5114835;28;20028;-83
2021/12/15 05:29:50;;;;;;;25.77;12.35;;;6.70;99.90;;;;;;5092202;28;20031;-83
2021/12/15 05:32:18;;;;;;;28.60;12.80;;;6.70;99.90;;;;;;5096940;28;20072;-83
2021/12/15 05:34:46;;;;;;;28.48;13.02;;;6.70;99.90;;;;;;5114507;28;20389;-83
2021/12/15 05:37:12;;;;;;;27.88;12.25;;;6.70;99.90;;;;;;5096947;28;20448;-83
2021/12/15 05:39:40;;;;;;;29.30;12.97;;;6.70;99.90;;;;;;5096163;28;20024;-83
2021/12/15 05:42:06;;;;;;;29.70;12.63;;;6.70;99.90;;;;;;5115010;28;20035;-83
2021/12/15 05:44:32;;;;;;;33.37;14.60;;;6.70;99.90;;;;;;5096159;28;20529;-83
2021/12/15 05:47:01;;;;;;;29.40;12.77;;;6.70;99.90;;;;;;5096630;28;20063;-83
2021/12/15 05:49:28;;;;;;;29.20;12.50;;;6.70;99.90;;;;;;5096369;28;20045;-83
2021/12/15 05:51:54;;;;;;;33.13;14.25;;;6.70;99.90;;;;;;5114594;28;20076;-83
2021/12/15 05:54:20;;;;;;;31.73;13.80;;;6.70;99.90;;;;;;5114418;28;20471;-83
2021/12/15 05:56:46;;;;;;;35.97;13.50;;;6.70;99.90;;;;;;5096418;28;20015;-83
2021/12/15 05:59:12;;;;;;;36.50;14.50;;;6.70;99.90;;;;;;5096402;28;20027;-83
2021/12/15 06:01:39;;;;;;;33.22;14.45;;;6.70;99.90;;;;;;5114099;28;20058;-83
2021/12/15 06:04:06;;;;;;;36.47;13.68;;;6.70;99.90;;;;;;5096520;28;20027;-83
2021/12/15 06:06:32;;;;;;;27.58;12.48;;;6.70;99.90;;;;;;5096225;28;20027;-83
2021/12/15 06:08:59;;;;;;;37.15;14.70;;;6.70;99.90;;;;;;5096000;28;20020;-82
2021/12/15 06:11:25;;;;;;;31.87;13.30;;;6.70;99.90;;;;;;5095785;28;20448;-83
2021/12/15 06:13:52;;;;;;;31.07;13.70;;;6.70;99.90;;;;;;5114289;28;20050;-83
2021/12/15 06:16:19;;;;;;;36.67;14.77;;;6.70;99.90;;;;;;5114425;28;20073;-83
2021/12/15 06:18:47;;;;;;;27.43;12.53;;;6.80;99.90;;;;;;5096065;28;20024;-83
2021/12/15 06:21:13;;;;;;;36.00;14.37;;;6.80;99.90;;;;;;5114133;28;20019;-83
2021/12/15 06:23:39;;;;;;;33.55;13.73;;;6.80;99.90;;;;;;5113924;28;20410;-84
2021/12/15 06:26:06;;;;;;;34.88;13.35;;;6.90;99.90;;;;;;5096167;28;20027;-83
2021/12/15 06:28:33;;;;;;;33.37;12.93;;;6.90;99.90;;;;;;5113637;28;20015;-83
2021/12/15 06:31:00;;;;;;;38.37;14.77;;;6.90;99.90;;;;;;5114216;28;20027;-83
2021/12/15 06:33:28;;;;;;;32.37;12.97;;;6.80;99.90;;;;;;5095629;28;20027;-83
2021/12/15 06:35:58;;;;;;;43.27;14.60;;;6.80;99.90;;;;;;5096371;28;20019;-82
2021/12/15 06:38:27;;;;;;;38.47;14.07;;;6.80;99.90;;;;;;5113711;28;20402;-83
2021/12/15 06:40:53;;;;;;;36.88;13.77;;;6.80;99.90;;;;;;5113953;28;20024;-83
2021/12/15 06:43:20;;;;;;;34.10;14.10;;;6.80;99.90;;;;;;5096357;28;20027;-83
2021/12/15 06:45:58;;;;;;;38.30;14.45;;;6.90;99.90;;;;;;5098798;28;20016;-83
2021/12/15 06:59:22;;;;;;;41.42;14.85;;;6.70;99.90;;;;;;5117827;28;20035;-83
2021/12/15 07:01:50;;;;;;;36.38;14.05;;;6.70;99.90;;;;;;5099125;28;20023;-83
2021/12/15 07:04:16;;;;;;;41.83;14.90;;;6.70;99.90;;;;;;5099802;28;20024;-83
2021/12/15 07:06:42;;;;;;;41.40;15.20;;;6.70;99.90;;;;;;5117155;28;20020;-83
2021/12/15 07:09:07;;;;;;;40.10;14.20;;;6.70;99.90;;;;;;5099720;28;20053;-82
2021/12/15 07:11:33;;;;;;;41.30;14.97;;;6.80;99.90;;;;;;5099143;28;20110;-83
2021/12/15 07:13:58;;;;;;;37.00;15.10;;;6.70;99.90;;;;;;5099410;28;20069;-83
2021/12/15 07:16:25;;;;;;;38.20;15.10;;;6.70;99.90;;;;;;5117654;28;20020;-83
2021/12/15 07:19:06;;;;;;;41.37;15.20;;;6.70;99.90;;;;;;5099380;28;20035;-83
2021/12/15 07:21:38;;;;;;;39.73;14.17;;;6.70;99.90;;;;;;5117072;28;20020;-83
2021/12/15 07:24:06;;;;;;;34.30;14.10;;;6.70;99.90;;;;;;5099370;28;20114;-83
2021/12/15 07:26:32;;;;;;;36.17;14.60;;;6.80;99.90;;;;;;5098738;28;20102;-83
2021/12/15 07:28:58;;;;;;;37.67;13.60;;;6.70;99.90;;;;;;5099169;28;20072;-83
2021/12/15 07:31:24;;;;;;;34.70;14.07;;;6.70;99.90;;;;;;5098916;28;20023;-83
2021/12/15 07:33:50;;;;;;;41.80;15.10;;;6.80;99.90;;;;;;5098707;28;20019;-83
2021/12/15 07:36:16;;;;;;;37.17;14.43;;;6.80;99.90;;;;;;5098467;28;20023;-83
2021/12/15 07:38:42;;;;;;;40.90;15.17;;;6.80;99.90;;;;;;5098509;28;20031;-84
2021/12/15 07:41:17;;;;;;;48.97;14.38;;;6.80;99.90;;;;;;5099055;28;20039;-84
2021/12/15 07:43:43;;;;;;;39.28;15.15;;;6.80;99.90;;;;;;5116245;28;20076;-84
2021/12/15 07:46:09;;;;;;;41.90;14.65;;;6.80;99.90;;;;;;5098902;28;20020;-83
2021/12/15 07:48:35;;;;;;;41.72;14.55;;;6.80;99.90;;;;;;5116015;28;20022;-84
2021/12/15 07:51:04;;;;;;;40.17;15.03;;;6.90;99.90;;;;;;5099176;28;20034;-83
2021/12/15 07:53:30;;;;;;;41.72;14.65;;;6.90;99.90;;;;;;5116328;28;20474;-84
2021/12/15 07:55:56;;;;;;;36.63;14.23;;;6.90;99.90;;;;;;5098599;28;20038;-83
2021/12/15 07:58:24;;;;;;;40.47;14.07;;;6.90;99.90;;;;;;5098917;28;20369;-83
2021/12/15 08:00:51;;;;;;;30.65;12.85;;;6.90;99.90;;;;;;5098524;28;20076;-83
2021/12/15 08:03:18;;;;;;;33.30;12.57;;;6.90;99.90;;;;;;5098211;28;20100;-83
2021/12/15 08:05:49;;;;;;;28.83;12.48;;;6.90;99.90;;;;;;5097807;28;20020;-83
2021/12/15 08:08:16;;;;;;;31.33;13.18;;;6.90;99.90;;;;;;5098253;28;20051;-84
2021/12/15 08:10:42;;;;;;;27.27;12.23;;;6.90;99.90;;;;;;5097802;28;20027;-83
2021/12/15 08:13:08;;;;;;;31.73;12.10;;;6.90;99.90;;;;;;5115568;28;20156;-82
2021/12/15 08:15:35;;;;;;;26.60;12.18;;;6.90;99.90;;;;;;5097543;28;20024;-83
2021/12/15 08:18:00;;;;;;;31.60;12.65;;;7.00;99.90;;;;;;5098251;28;20130;-83
2021/12/15 08:20:29;;;;;;;34.03;12.00;;;7.00;99.90;;;;;;5098108;28;20057;-83
2021/12/15 08:22:54;;;;;;;29.17;11.82;;;7.00;99.90;;;;;;5115848;28;20054;-83
2021/12/15 08:25:21;;;;;;;28.50;12.63;;;7.00;99.90;;;;;;5097915;28;20051;-83
2021/12/15 08:27:48;;;;;;;28.52;12.15;;;7.00;99.90;;;;;;5097085;28;20016;-82
2021/12/15 08:30:19;;;;;;;26.60;12.50;;;7.00;99.90;;;;;;5097583;28;20026;-82
2021/12/15 08:32:49;;;;;;;31.23;13.03;;;7.00;99.90;;;;;;5115250;28;20098;-83
2021/12/15 08:35:23;;;;;;;32.95;13.30;;;7.00;99.90;;;;;;5097535;28;20024;-83
2021/12/15 08:37:48;;;;;;;26.70;12.27;;;7.10;99.90;;;;;;5097292;28;20022;-84
2021/12/15 08:40:19;;;;;;;26.20;12.23;;;7.10;99.90;;;;;;5097545;28;20019;-83
2021/12/15 08:42:45;;;;;;;25.20;11.10;;;7.10;99.90;;;;;;5096843;28;20472;-83
2021/12/15 08:45:11;;;;;;;25.23;11.77;;;7.10;99.90;;;;;;5097476;28;20034;-83
2021/12/15 08:47:37;;;;;;;27.87;12.73;;;7.10;99.90;;;;;;5096571;28;20016;-83
2021/12/15 08:50:06;;;;;;;31.97;13.27;;;7.10;99.90;;;;;;5097383;28;20418;-83
2021/12/15 08:52:32;;;;;;;34.17;13.43;;;7.10;99.90;;;;;;5114990;28;20023;-84
2021/12/15 08:54:58;;;;;;;31.90;13.43;;;7.10;99.90;;;;;;5115412;28;20012;-83
2021/12/15 08:57:23;;;;;;;35.63;13.50;;;7.20;99.90;;;;;;5115326;28;20145;-82
2021/12/15 08:59:49;;;;;;;32.17;13.65;;;7.10;99.90;;;;;;5114699;28;20034;-82
2021/12/15 09:02:15;;;;;;;35.20;13.87;;;7.20;99.90;;;;;;5115174;28;20035;-82
2021/12/15 09:04:40;;;;;;;33.57;14.27;;;7.20;99.90;;;;;;5114557;28;20097;-83
2021/12/15 09:07:06;;;;;;;30.97;13.13;;;7.20;99.90;;;;;;5096450;28;20094;-83
2021/12/15 09:09:32;;;;;;;38.03;14.63;;;7.20;99.90;;;;;;5096662;28;20026;-83
2021/12/15 09:11:58;;;;;;;35.42;13.73;;;7.30;99.90;;;;;;5097040;28;20115;-83
2021/12/15 09:14:23;;;;;;;35.55;12.70;;;7.30;99.90;;;;;;5114747;28;20051;-83
2021/12/15 09:16:52;;;;;;;31.73;13.18;;;7.30;99.90;;;;;;5114620;28;20020;-82
2021/12/15 09:19:18;;;;;;;32.40;13.23;;;7.30;99.90;;;;;;5096326;28;20050;-83
2021/12/15 09:21:46;;;;;;;32.70;12.73;;;7.40;99.90;;;;;;5095733;28;20028;-83
2021/12/15 09:24:13;;;;;;;31.45;13.13;;;7.30;99.90;;;;;;5094694;28;20024;-82
2021/12/15 09:26:40;;;;;;;33.45;13.48;;;7.40;99.90;;;;;;5110161;28;20103;-83
2021/12/15 09:29:06;;;;;;;29.75;13.00;;;7.40;99.90;;;;;;5096676;28;20047;-83
2021/12/15 09:31:33;;;;;;;37.55;14.40;;;7.40;99.90;;;;;;5114549;28;20208;-82
2021/12/15 09:34:02;;;;;;;30.75;13.20;;;7.40;99.90;;;;;;5114919;28;20094;-82
2021/12/15 09:36:29;;;;;;;33.08;15.05;;;7.40;99.90;;;;;;5114588;28;20058;-82
2021/12/15 09:39:09;;;;;;;37.22;13.65;;;7.50;99.90;;;;;;5096283;28;20024;-83
2021/12/15 09:41:36;;;;;;;32.08;12.82;;;7.50;99.90;;;;;;5096172;28;20122;-83
2021/12/15 09:44:08;;;;;;;34.25;14.20;;;7.60;99.90;;;;;;5096963;28;20024;-82
2021/12/15 10:03:32;;;;;;;30.98;13.40;;;7.70;99.90;;;;;;5114145;28;20026;-81
2021/12/15 10:06:24;;;;;;;33.28;12.75;;;7.80;99.90;;;;;;5095919;28;20050;-82
2021/12/15 10:17:41;;;;;;;32.30;13.20;;;7.80;99.90;;;;;;5062813;28;20453;-82
2021/12/15 10:20:13;;;;;;;30.15;13.00;;;7.90;99.90;;;;;;5078167;28;20073;-84
2021/12/15 10:22:44;;;;;;;31.85;13.75;;;8.00;99.90;;;;;;5076352;28;20024;-83
2021/12/15 10:25:19;;;;;;;41.28;12.55;;;8.00;99.90;;;;;;5081387;28;20028;-83
2021/12/15 10:27:52;;;;;;;31.85;13.05;;;8.00;99.90;;;;;;5078988;28;20024;-83
2021/12/15 10:30:25;;;;;;;31.08;14.05;;;8.10;99.90;;;;;;5097869;28;20020;-84
2021/12/15 10:33:02;;;;;;;30.92;12.63;;;8.10;99.90;;;;;;5078804;28;20028;-83
2021/12/15 10:35:49;;;;;;;28.45;13.35;;;8.10;99.90;;;;;;5097736;28;20020;-84
2021/12/15 10:38:20;;;;;;;34.05;12.63;;;8.20;99.90;;;;;;5079148;28;20388;-83
2021/12/15 10:40:48;;;;;;;27.40;12.10;;;8.20;99.90;;;;;;5079060;28;20077;-84
2021/12/15 10:43:15;;;;;;;32.75;12.73;;;8.30;99.90;;;;;;5078683;28;20036;-83
2021/12/15 10:45:48;;;;;;;33.63;13.10;;;8.30;99.90;;;;;;5079065;28;20047;-83
2021/12/15 10:48:34;;;;;;;31.13;13.00;;;8.30;99.90;;;;;;5079211;28;20016;-84
2021/12/15 10:51:18;;;;;;;30.33;12.65;;;8.40;99.90;;;;;;5096923;28;20030;-84
2021/12/15 10:53:45;;;;;;;27.52;12.80;;;8.40;99.90;;;;;;5078659;28;20487;-84
2021/12/15 10:56:13;;;;;;;27.52;12.38;;;8.50;99.90;;;;;;5079512;28;20024;-84
2021/12/15 10:58:43;;;;;;;30.98;12.27;;;8.40;99.90;;;;;;5079277;28;20031;-84
2021/12/15 11:01:39;;;;;;;23.88;11.63;;;8.50;99.90;;;;;;5078988;28;20027;-84
2021/12/15 11:04:26;;;;;;;25.25;10.85;;;8.50;99.90;;;;;;5078986;28;20053;-84
2021/12/15 11:07:16;;;;;;;28.52;11.85;;;8.50;99.90;;;;;;5095581;28;20069;-84
2021/12/15 11:09:50;;;;;;;25.05;11.07;;;8.50;99.90;;;;;;5091190;28;20020;-84
2021/12/15 11:12:51;;;;;;;31.80;14.10;;;8.50;99.90;;;;;;5058760;28;20636;-84
2021/12/15 11:15:22;;;;;;;30.33;11.77;;;8.50;99.90;;;;;;5075626;28;20045;-83
2021/12/15 11:18:01;;;;;;;30.17;11.52;;;8.50;99.90;;;;;;5057543;28;20043;-84
2021/12/15 11:20:30;;;;;;;25.50;12.15;;;8.50;99.90;;;;;;5058050;28;20028;-83
2021/12/15 11:23:08;;;;;;;25.52;11.48;;;8.50;99.90;;;;;;5057060;28;20078;-83
2021/12/15 11:25:36;;;;;;;30.85;12.07;;;8.50;99.90;;;;;;5064788;28;20470;-82
2021/12/15 11:28:11;;;;;;;25.38;11.38;;;8.40;99.90;;;;;;5076888;28;20031;-83
2021/12/15 11:31:03;;;;;;;26.73;12.07;;;8.40;99.90;;;;;;5077593;28;20020;-82
2021/12/15 11:33:30;;;;;;;24.77;11.77;;;8.40;99.90;;;;;;5077603;28;20024;-83
2021/12/15 11:36:13;;;;;;;25.80;11.88;;;8.40;99.90;;;;;;5076993;28;20024;-83
2021/12/15 11:38:47;;;;;;;27.90;11.90;;;8.50;99.90;;;;;;5076622;28;20024;-83
2021/12/15 11:41:17;;;;;;;25.80;11.68;;;8.40;99.90;;;;;;5057401;28;20033;-83
2021/12/15 11:43:56;;;;;;;28.25;12.02;;;8.40;99.90;;;;;;5056956;28;20528;-83
2021/12/15 11:46:27;;;;;;;21.20;10.48;;;8.50;99.90;;;;;;5057307;28;20070;-83
2021/12/15 11:48:57;;;;;;;22.83;10.80;;;8.40;99.90;;;;;;5056390;28;20354;-81
2021/12/15 11:51:48;;;;;;;20.67;10.68;;;8.50;99.90;;;;;;5057320;28;20261;-82
2021/12/15 11:54:21;;;;;;;22.33;9.73;;;8.60;99.90;;;;;;5071732;28;20036;-82
2021/12/15 11:56:55;;;;;;;22.88;10.82;;;8.60;99.90;;;;;;5073843;28;20043;-82
2021/12/15 11:59:25;;;;;;;24.25;10.85;;;8.60;99.90;;;;;;5089287;28;20081;-82
2021/12/15 12:01:53;;;;;;;21.67;10.55;;;8.60;99.90;;;;;;5056252;28;20024;-83
2021/12/15 12:04:34;;;;;;;25.80;10.05;;;8.60;99.90;;;;;;5074011;28;20032;-82
2021/12/15 12:07:10;;;;;;;21.27;10.45;;;8.60;99.90;;;;;;5064414;28;20027;-83
2021/12/15 12:09:38;;;;;;;20.10;7.93;;;8.70;99.90;;;;;;5093619;28;20059;-81
2021/12/15 12:12:06;;;;;;;17.90;7.85;;;8.70;99.90;;;;;;5072483;28;20033;-81
2021/12/15 12:14:43;;;;;;;19.08;9.15;;;8.70;99.90;;;;;;5065523;28;1114077;-82
2021/12/15 12:17:13;;;;;;;18.33;8.45;;;8.70;99.90;;;;;;5098080;28;20069;-83
2021/12/15 12:19:46;;;;;;;17.58;7.32;;;8.70;99.90;;;;;;5097903;28;20020;-82
2021/12/15 12:22:14;;;;;;;14.85;7.45;;;8.70;99.90;;;;;;5097720;28;20019;-84
2021/12/15 12:24:42;;;;;;;20.98;7.70;;;8.80;99.90;;;;;;5115227;28;20084;-83
2021/12/15 12:27:08;;;;;;;14.32;6.07;;;8.80;99.90;;;;;;5097919;28;20015;-83
2021/12/15 12:29:35;;;;;;;12.55;5.57;;;8.90;99.90;;;;;;5115545;28;20026;-83
2021/12/15 12:32:01;;;;;;;8.23;4.10;;;8.90;99.90;;;;;;5091515;28;20114;-83
2021/12/15 12:34:27;;;;;;;6.95;3.50;;;8.90;99.90;;;;;;5095339;28;20503;-83
2021/12/15 12:36:53;;;;;;;7.80;3.42;;;9.00;99.90;;;;;;5077417;28;20057;-83
2021/12/15 12:39:22;;;;;;;6.25;3.40;;;9.00;99.90;;;;;;5097004;28;20020;-84
2021/12/15 12:41:49;;;;;;;4.07;2.33;;;9.00;99.90;;;;;;5094950;28;20047;-84
2021/12/15 12:44:21;;;;;;;4.03;2.20;;;9.00;99.90;;;;;;5097489;28;20027;-83
2021/12/15 12:47:02;;;;;;;5.40;2.42;;;9.00;99.90;;;;;;5114425;28;20019;-83
2021/12/15 12:49:55;;;;;;;3.25;2.00;;;9.00;99.90;;;;;;5096423;28;20138;-83
2021/12/15 13:01:04;;;;;;;2.95;1.80;;;8.90;99.90;;;;;;5041996;28;20029;-83
2021/12/15 13:03:48;;;;;;;3.55;2.00;;;8.90;99.90;;;;;;5097233;28;20437;-83
2021/12/15 13:06:21;;;;;;;4.28;2.20;;;8.90;99.90;;;;;;5114930;28;20038;-83
2021/12/15 13:08:48;;;;;;;3.13;1.90;;;8.90;99.90;;;;;;5096496;28;20032;-84
2021/12/15 13:11:22;;;;;;;3.08;2.05;;;8.90;99.90;;;;;;5096350;28;20028;-83
2021/12/15 13:14:05;;;;;;;4.57;1.90;;;8.90;99.90;;;;;;5095847;28;20551;-84
2021/12/15 13:16:40;;;;;;;3.15;1.90;;;8.90;99.90;;;;;;5114777;28;20019;-83
2021/12/15 13:19:21;;;;;;;3.60;2.22;;;8.90;99.90;;;;;;5096239;28;20024;-83
2021/12/15 13:22:02;;;;;;;4.15;2.10;;;8.90;99.90;;;;;;5096182;28;20027;-84
2021/12/15 13:30:47;;;;;;;4.72;2.30;;;8.80;99.90;;;;;;5114430;28;20024;-82
2021/12/15 13:33:40;;;;;;;4.75;2.33;;;8.80;99.90;;;;;;5097053;28;20345;-84
2021/12/15 13:36:30;;;;;;;4.88;2.47;;;8.80;99.90;;;;;;5084496;28;20035;-83
2021/12/15 13:39:02;;;;;;;4.53;2.85;;;8.70;99.90;;;;;;5095778;28;20039;-84
2021/12/15 13:41:48;;;;;;;5.90;2.83;;;8.70;99.90;;;;;;5114634;28;20028;-83
2021/12/15 13:44:19;;;;;;;4.00;2.45;;;8.70;99.90;;;;;;5096364;28;20046;-83
2021/12/15 13:46:45;;;;;;;4.32;2.67;;;8.70;99.90;;;;;;5114456;28;20022;-83
2021/12/15 13:49:42;;;;;;;5.53;3.17;;;8.70;99.90;;;;;;5095210;28;20118;-83
2021/12/15 13:52:11;;;;;;;5.45;2.80;;;8.70;99.90;;;;;;5096140;28;20135;-82
2021/12/15 13:54:36;;;;;;;4.72;2.85;;;8.70;99.90;;;;;;5096198;28;20076;-83
2021/12/15 13:57:02;;;;;;;5.78;2.75;;;8.70;99.90;;;;;;5095396;28;20019;-83
2021/12/15 13:59:35;;;;;;;5.00;3.00;;;8.70;99.90;;;;;;5114042;28;20022;-83
2021/12/15 14:02:15;;;;;;;6.30;3.00;;;8.70;99.90;;;;;;5095631;28;20034;-83
2021/12/15 14:04:46;;;;;;;5.80;3.00;;;8.60;99.90;;;;;;5096004;28;20015;-83
2021/12/15 14:07:30;;;;;;;5.15;2.75;;;8.60;99.90;;;;;;5096450;28;20020;-82
2021/12/15 14:10:12;;;;;;;6.95;2.53;;;8.60;99.90;;;;;;5096266;28;20096;-82
2021/12/15 14:12:49;;;;;;;4.95;2.70;;;8.60;99.90;;;;;;5096272;28;20539;-82
2021/12/15 14:15:35;;;;;;;5.15;2.72;;;8.60;99.90;;;;;;5096061;28;20073;-82
2021/12/15 14:18:06;;;;;;;6.53;3.03;;;8.60;99.90;;;;;;5095520;28;20019;-83
2021/12/15 14:20:35;;;;;;;6.35;3.03;;;8.60;99.90;;;;;;5095678;28;20350;-82
2021/12/15 14:23:05;;;;;;;5.07;3.10;;;8.60;99.90;;;;;;5095471;28;20027;-82
2021/12/15 14:25:35;;;;;;;4.60;2.55;;;8.60;99.90;;;;;;5095704;28;20030;-82